Time,TemperatureF,DewpointF,PressureIn,WindDirection,WindDirectionDegrees,WindSpeedMPH,WindSpeedGustMPH,Humidity,HourlyPrecipIn,Conditions,Clouds,dailyrainin,SolarRadiationWatts/m^2,SoftwareType,DateUTC
2013-08-17 00:42:00,73.0,51.0,30.15,West,264,5.0,6.0,45,-99.99,,,-99.99,0.000000,,2013-08-17 06:42:00,
2013-08-17 01:42:00,75.0,51.0,30.16,WNW,295,8.0,13.0,43,-99.99,,,-99.99,0.000000,,2013-08-17 07:42:00,
2013-08-17 02:11:00,73.0,53.0,30.16,West,274,5.0,8.0,50,-99.99,,,-99.99,0.000000,,2013-08-17 08:11:00,
2013-08-17 02:21:00,73.0,53.0,30.16,West,274,5.0,8.0,50,-99.99,,,-99.99,0.000000,,2013-08-17 08:21:00,
2013-08-17 02:42:00,73.0,53.0,30.15,West,278,4.0,8.0,48,-99.99,,,-99.99,0.000000,,2013-08-17 08:42:00,
2013-08-17 02:52:00,73.0,53.0,30.15,WNW,298,1.0,3.0,49,-99.99,,,-99.99,0.000000,,2013-08-17 08:52:00,
2013-08-17 03:01:00,73.0,53.0,30.15,WNW,298,1.0,3.0,49,-99.99,,,-99.99,0.000000,,2013-08-17 09:01:00,
2013-08-17 03:11:00,73.0,53.0,30.15,WNW,298,1.0,3.0,49,-99.99,,,-99.99,0.000000,,2013-08-17 09:11:00,
2013-08-17 03:43:00,70.0,53.0,30.15,WSW,249,4.0,8.0,54,-99.99,,,-99.99,0.000000,,2013-08-17 09:43:00,
2013-08-17 04:12:00,70.0,53.0,30.15,NE,40,1.0,3.0,54,-99.99,,,-99.99,0.000000,,2013-08-17 10:12:00,
2013-08-17 04:42:00,69.0,53.0,30.15,West,270,1.0,3.0,57,-99.99,,,-99.99,0.000000,,2013-08-17 10:42:00,
2013-08-17 05:11:00,68.0,53.0,30.15,WNW,283,8.0,10.0,57,-99.99,,,-99.99,0.000000,,2013-08-17 11:11:00,
2013-08-17 05:42:00,71.0,52.0,30.15,West,277,5.0,7.0,50,-99.99,,,-99.99,0.000000,,2013-08-17 11:42:00,
2013-08-17 05:52:00,71.0,52.0,30.15,West,277,5.0,7.0,50,-99.99,,,-99.99,0.000000,,2013-08-17 11:52:00,
2013-08-17 06:01:00,71.0,52.0,30.15,West,277,5.0,7.0,50,-99.99,,,-99.99,0.000000,,2013-08-17 12:01:00,
2013-08-17 06:42:00,67.0,54.0,30.16,NW,307,6.0,7.0,62,-99.99,,,-99.99,0.000000,,2013-08-17 12:42:00,
2013-08-17 07:11:00,65.0,54.0,30.16,West,266,4.0,5.0,66,-99.99,,,-99.99,6.280000,,2013-08-17 13:11:00,
2013-08-17 07:42:00,69.0,54.0,30.17,WNW,303,4.0,8.0,60,-99.99,,,-99.99,59.970001,,2013-08-17 13:42:00,
2013-08-17 07:52:00,69.0,54.0,30.17,WNW,303,4.0,8.0,60,-99.99,,,-99.99,59.970001,,2013-08-17 13:52:00,
2013-08-17 08:01:00,69.0,54.0,30.17,WNW,303,4.0,8.0,60,-99.99,,,-99.99,59.970001,,2013-08-17 14:01:00,
2013-08-17 08:42:00,79.0,55.0,30.18,North,2,3.0,5.0,44,-99.99,,,-99.99,232.210007,,2013-08-17 14:42:00,
2013-08-17 09:11:00,80.0,53.0,30.19,ENE,69,4.0,6.0,38,-99.99,,,-99.99,277.540009,,2013-08-17 15:11:00,
2013-08-17 09:44:00,80.0,54.0,30.19,SE,125,3.0,5.0,40,-99.99,,,-99.99,368.890015,,2013-08-17 15:44:00,
2013-08-17 10:42:00,83.0,54.0,30.19,ENE,77,2.0,5.0,37,-99.99,,,-99.99,540.429993,,2013-08-17 16:42:00,
2013-08-17 10:53:00,85.0,53.0,30.19,East,91,3.0,7.0,32,-99.99,,,-99.99,604.590027,,2013-08-17 16:53:00,
2013-08-17 11:12:00,86.0,53.0,30.19,NE,56,3.0,6.0,32,-99.99,,,-99.99,649.909973,,2013-08-17 17:12:00,
2013-08-17 11:42:00,88.0,54.0,30.19,ESE,123,5.0,9.0,31,-99.99,,,-99.99,711.280029,,2013-08-17 17:42:00,
2013-08-17 11:52:00,88.0,54.0,30.19,ESE,123,5.0,9.0,31,-99.99,,,-99.99,711.280029,,2013-08-17 17:52:00,
2013-08-17 12:02:00,88.0,54.0,30.19,ESE,123,5.0,9.0,31,-99.99,,,-99.99,711.280029,,2013-08-17 18:02:00,
2013-08-17 12:42:00,90.0,52.0,30.17,ESE,113,5.0,11.0,27,-99.99,,,-99.99,780.320007,,2013-08-17 18:42:00,
2013-08-17 13:42:00,93.0,52.0,30.14,SW,223,6.0,10.0,25,-99.99,,,-99.99,818.669983,,2013-08-17 19:42:00,
2013-08-17 13:52:00,94.0,48.0,30.13,North,359,7.0,15.0,20,-99.99,,,-99.99,815.880005,,2013-08-17 19:52:00,
2013-08-17 14:02:00,94.0,48.0,30.13,North,359,7.0,15.0,20,-99.99,,,-99.99,815.880005,,2013-08-17 20:02:00,
2013-08-17 14:11:00,94.0,48.0,30.13,North,359,7.0,15.0,20,-99.99,,,-99.99,815.880005,,2013-08-17 20:11:00,
2013-08-17 14:42:00,96.0,47.0,30.10,NNW,331,7.0,16.0,19,-99.99,,,-99.99,811.700012,,2013-08-17 20:42:00,
2013-08-17 14:52:00,96.0,47.0,30.10,NNW,331,7.0,16.0,19,-99.99,,,-99.99,811.700012,,2013-08-17 20:52:00,
2013-08-17 15:01:00,96.0,47.0,30.10,NNW,331,7.0,16.0,19,-99.99,,,-99.99,811.700012,,2013-08-17 21:01:00,
2013-08-17 15:42:00,96.0,45.0,30.08,West,260,5.0,12.0,17,-99.99,,,-99.99,760.789978,,2013-08-17 21:42:00,
2013-08-17 15:54:00,96.0,45.0,30.08,West,260,5.0,12.0,17,-99.99,,,-99.99,760.789978,,2013-08-17 21:54:00,
2013-08-17 16:03:00,96.0,45.0,30.08,West,260,5.0,12.0,17,-99.99,,,-99.99,760.789978,,2013-08-17 22:03:00,
2013-08-17 16:42:00,96.0,47.0,30.05,SSE,162,7.0,15.0,19,-99.99,,,-99.99,336.809998,,2013-08-17 22:42:00,
2013-08-17 16:52:00,96.0,47.0,30.05,SSE,162,7.0,15.0,19,-99.99,,,-99.99,336.809998,,2013-08-17 22:52:00,
2013-08-17 17:02:00,96.0,47.0,30.05,SSE,162,7.0,15.0,19,-99.99,,,-99.99,336.809998,,2013-08-17 23:02:00,
2013-08-17 18:21:00,95.0,45.0,30.03,SSE,152,7.0,12.0,18,-99.99,,,-99.99,260.109985,,2013-08-18 00:21:00,
2013-08-17 18:42:00,95.0,45.0,30.03,SE,132,9.0,17.0,18,-99.99,,,-99.99,255.919998,,2013-08-18 00:42:00,
2013-08-17 18:52:00,95.0,45.0,30.03,SE,132,9.0,17.0,18,-99.99,,,-99.99,255.919998,,2013-08-18 00:52:00,
2013-08-17 19:01:00,95.0,45.0,30.03,SE,132,9.0,17.0,18,-99.99,,,-99.99,255.919998,,2013-08-18 01:01:00,
2013-08-17 19:42:00,92.0,43.0,30.04,SE,130,12.0,19.0,18,-99.99,,,-99.99,92.050003,,2013-08-18 01:42:00,
2013-08-17 20:42:00,87.0,46.0,30.06,South,171,12.0,19.0,23,-99.99,,,-99.99,1.390000,,2013-08-18 02:42:00,
2013-08-17 21:11:00,87.0,45.0,30.06,SSE,158,13.0,22.0,23,-99.99,,,-99.99,0.000000,,2013-08-18 03:11:00,
2013-08-17 21:43:00,87.0,43.0,30.07,South,170,9.0,16.0,21,-99.99,,,-99.99,0.000000,,2013-08-18 03:43:00,
2013-08-17 21:53:00,87.0,43.0,30.07,South,170,9.0,16.0,21,-99.99,,,-99.99,0.000000,,2013-08-18 03:53:00,
2013-08-17 22:02:00,-999.0,-99.9,30.07,South,170,9.0,16.0,-999,-99.99,,,-99.99,,,2013-08-18 04:02:00,
2013-08-17 22:42:00,80.0,47.0,30.09,WNW,286,5.0,7.0,31,-99.99,,,-99.99,0.000000,,2013-08-18 04:42:00,
2013-08-17 22:53:00,80.0,47.0,30.09,WNW,286,5.0,7.0,31,-99.99,,,-99.99,0.000000,,2013-08-18 04:53:00,
2013-08-17 23:12:00,79.0,47.0,30.09,NW,316,7.0,10.0,32,-99.99,,,-99.99,0.000000,,2013-08-18 05:12:00,
2013-08-17 23:42:00,78.0,49.0,30.11,WNW,291,3.0,7.0,35,-99.99,,,-99.99,0.000000,,2013-08-18 05:42:00,
2013-08-17 23:52:00,78.0,49.0,30.11,WNW,291,3.0,7.0,35,-99.99,,,-99.99,0.000000,,2013-08-18 05:52:00,